sensor_id;sensor_type;location;lat;lon;timestamp;temperature;humidity
38582;DHT22;24349;53.720;10.014;2022-12-26T00:01:01;7.30;99.90
38582;DHT22;24349;53.720;10.014;2022-12-26T00:03:26;7.40;99.90
38582;DHT22;24349;53.720;10.014;2022-12-26T00:05:55;7.40;99.90
38582;DHT22;24349;53.720;10.014;2022-12-26T00:08:20;7.50;99.90
38582;DHT22;24349;53.720;10.014;2022-12-26T00:10:46;7.40;99.90
38582;DHT22;24349;53.720;10.014;2022-12-26T00:13:11;7.50;99.90
38582;DHT22;24349;53.720;10.014;2022-12-26T00:15:40;7.50;99.90
38582;DHT22;24349;53.720;10.014;2022-12-26T00:18:05;7.50;99.90
38582;DHT22;24349;53.720;10.014;2022-12-26T00:20:30;7.50;99.90
38582;DHT22;24349;53.720;10.014;2022-12-26T00:22:56;7.50;99.90
38582;DHT22;24349;53.720;10.014;2022-12-26T00:25:21;7.40;99.90
38582;DHT22;24349;53.720;10.014;2022-12-26T00:27:47;7.40;99.90
38582;DHT22;24349;53.720;10.014;2022-12-26T00:30:12;7.40;99.90
38582;DHT22;24349;53.720;10.014;2022-12-26T00:32:38;7.40;99.90
38582;DHT22;24349;53.720;10.014;2022-12-26T00:35:04;7.40;99.90
38582;DHT22;24349;53.720;10.014;2022-12-26T00:37:29;7.40;99.90
38582;DHT22;24349;53.720;10.014;2022-12-26T00:39:55;7.50;99.90
38582;DHT22;24349;53.720;10.014;2022-12-26T00:42:21;7.50;99.90
38582;DHT22;24349;53.720;10.014;2022-12-26T00:44:46;7.50;99.90
38582;DHT22;24349;53.720;10.014;2022-12-26T00:47:12;7.40;99.90
38582;DHT22;24349;53.720;10.014;2022-12-26T00:49:37;7.30;99.90
38582;DHT22;24349;53.720;10.014;2022-12-26T00:52:03;7.20;99.90
38582;DHT22;24349;53.720;10.014;2022-12-26T00:54:29;7.20;99.90
38582;DHT22;24349;53.720;10.014;2022-12-26T00:56:54;7.10;99.90
38582;DHT22;24349;53.720;10.014;2022-12-26T00:59:19;7.10;99.90
38582;DHT22;24349;53.720;10.014;2022-12-26T01:01:45;7.10;99.90
38582;DHT22;24349;53.720;10.014;2022-12-26T01:04:11;7.00;99.90
38582;DHT22;24349;53.720;10.014;2022-12-26T01:06:36;7.00;99.90
38582;DHT22;24349;53.720;10.014;2022-12-26T01:09:02;7.00;99.90
38582;DHT22;24349;53.720;10.014;2022-12-26T01:11:27;7.00;99.90
38582;DHT22;24349;53.720;10.014;2022-12-26T01:14:05;7.00;99.90
38582;DHT22;24349;53.720;10.014;2022-12-26T01:16:31;7.00;99.90
38582;DHT22;24349;53.720;10.014;2022-12-26T01:18:56;7.00;99.90
38582;DHT22;24349;53.720;10.014;2022-12-26T01:21:22;7.00;99.90
38582;DHT22;24349;53.720;10.014;2022-12-26T01:23:47;7.10;99.90
38582;DHT22;24349;53.720;10.014;2022-12-26T01:26:13;7.00;99.90
38582;DHT22;24349;53.720;10.014;2022-12-26T01:28:38;7.00;99.90
38582;DHT22;24349;53.720;10.014;2022-12-26T01:31:04;7.00;99.90
38582;DHT22;24349;53.720;10.014;2022-12-26T01:33:30;7.00;99.90
38582;DHT22;24349;53.720;10.014;2022-12-26T01:35:55;7.00;99.90
38582;DHT22;24349;53.720;10.014;2022-12-26T01:38:21;7.00;99.90
38582;DHT22;24349;53.720;10.014;2022-12-26T01:40:47;7.10;99.90
38582;DHT22;24349;53.720;10.014;2022-12-26T01:43:13;7.10;99.90
38582;DHT22;24349;53.720;10.014;2022-12-26T01:45:39;7.10;99.90
38582;DHT22;24349;53.720;10.014;2022-12-26T01:48:17;7.10;99.90
38582;DHT22;24349;53.720;10.014;2022-12-26T01:53:34;7.10;99.90
38582;DHT22;24349;53.720;10.014;2022-12-26T01:56:09;7.20;99.90
38582;DHT22;24349;53.720;10.014;2022-12-26T01:58:37;7.20;99.90
38582;DHT22;24349;53.720;10.014;2022-12-26T02:01:04;7.20;99.90
38582;DHT22;24349;53.720;10.014;2022-12-26T02:03:31;7.20;99.90
38582;DHT22;24349;53.720;10.014;2022-12-26T02:06:15;7.20;99.90
38582;DHT22;24349;53.720;10.014;2022-12-26T02:08:41;7.20;99.90
38582;DHT22;24349;53.720;10.014;2022-12-26T02:13:34;7.30;99.90
38582;DHT22;24349;53.720;10.014;2022-12-26T02:16:01;7.30;99.90
38582;DHT22;24349;53.720;10.014;2022-12-26T02:18:26;7.30;99.90
38582;DHT22;24349;53.720;10.014;2022-12-26T02:26:34;7.30;99.90
38582;DHT22;24349;53.720;10.014;2022-12-26T02:34:14;7.40;99.90
38582;DHT22;24349;53.720;10.014;2022-12-26T02:44:21;7.30;99.90
38582;DHT22;24349;53.720;10.014;2022-12-26T02:47:15;7.30;99.90
38582;DHT22;24349;53.720;10.014;2022-12-26T02:49:50;7.40;99.90
38582;DHT22;24349;53.720;10.014;2022-12-26T02:55:40;7.40;99.90
38582;DHT22;24349;53.720;10.014;2022-12-26T02:58:32;7.40;99.90
38582;DHT22;24349;53.720;10.014;2022-12-26T03:01:21;7.40;99.90
38582;DHT22;24349;53.720;10.014;2022-12-26T03:04:08;7.40;99.90
38582;DHT22;24349;53.720;10.014;2022-12-26T03:06:55;7.40;99.90
38582;DHT22;24349;53.720;10.014;2022-12-26T03:09:41;7.40;99.90
38582;DHT22;24349;53.720;10.014;2022-12-26T03:12:42;7.40;99.90
38582;DHT22;24349;53.720;10.014;2022-12-26T03:15:28;7.40;99.90
38582;DHT22;24349;53.720;10.014;2022-12-26T03:18:15;7.40;99.90
38582;DHT22;24349;53.720;10.014;2022-12-26T03:20:43;7.40;99.90
38582;DHT22;24349;53.720;10.014;2022-12-26T03:23:09;7.40;99.90
38582;DHT22;24349;53.720;10.014;2022-12-26T03:25:40;7.40;99.90
38582;DHT22;24349;53.720;10.014;2022-12-26T03:28:25;7.50;99.90
38582;DHT22;24349;53.720;10.014;2022-12-26T03:30:51;7.40;99.90
38582;DHT22;24349;53.720;10.014;2022-12-26T03:33:39;7.40;99.90
38582;DHT22;24349;53.720;10.014;2022-12-26T03:42:11;7.40;99.90
38582;DHT22;24349;53.720;10.014;2022-12-26T03:44:54;7.40;99.90
38582;DHT22;24349;53.720;10.014;2022-12-26T03:47:44;7.40;99.90
38582;DHT22;24349;53.720;10.014;2022-12-26T03:50:34;7.40;99.90
38582;DHT22;24349;53.720;10.014;2022-12-26T03:53:20;7.40;99.90
38582;DHT22;24349;53.720;10.014;2022-12-26T03:56:08;7.40;99.90
38582;DHT22;24349;53.720;10.014;2022-12-26T03:59:04;7.40;99.90
38582;DHT22;24349;53.720;10.014;2022-12-26T04:01:50;7.40;99.90
38582;DHT22;24349;53.720;10.014;2022-12-26T04:04:36;7.40;99.90
38582;DHT22;24349;53.720;10.014;2022-12-26T04:07:23;7.40;99.90
38582;DHT22;24349;53.720;10.014;2022-12-26T04:10:30;7.50;99.90
38582;DHT22;24349;53.720;10.014;2022-12-26T04:13:22;7.40;99.90
38582;DHT22;24349;53.720;10.014;2022-12-26T04:16:56;7.40;99.90
38582;DHT22;24349;53.720;10.014;2022-12-26T04:19:15;7.50;99.90
38582;DHT22;24349;53.720;10.014;2022-12-26T04:24:35;7.50;99.90
38582;DHT22;24349;53.720;10.014;2022-12-26T04:27:20;7.60;99.90
38582;DHT22;24349;53.720;10.014;2022-12-26T04:30:05;7.60;99.90
38582;DHT22;24349;53.720;10.014;2022-12-26T04:32:49;7.70;99.90
38582;DHT22;24349;53.720;10.014;2022-12-26T04:38:22;7.70;99.90
38582;DHT22;24349;53.720;10.014;2022-12-26T04:41:08;7.70;99.90
38582;DHT22;24349;53.720;10.014;2022-12-26T04:43:54;7.70;99.90
38582;DHT22;24349;53.720;10.014;2022-12-26T04:46:51;7.70;99.90
38582;DHT22;24349;53.720;10.014;2022-12-26T04:49:17;7.70;99.90
38582;DHT22;24349;53.720;10.014;2022-12-26T04:52:03;7.70;99.90
38582;DHT22;24349;53.720;10.014;2022-12-26T04:54:29;7.70;99.90
38582;DHT22;24349;53.720;10.014;2022-12-26T04:56:54;7.70;99.90
38582;DHT22;24349;53.720;10.014;2022-12-26T04:59:21;7.70;99.90
38582;DHT22;24349;53.720;10.014;2022-12-26T05:01:46;7.70;99.90
38582;DHT22;24349;53.720;10.014;2022-12-26T05:04:31;7.70;99.90
38582;DHT22;24349;53.720;10.014;2022-12-26T05:07:17;7.70;99.90
38582;DHT22;24349;53.720;10.014;2022-12-26T05:10:02;7.70;99.90
38582;DHT22;24349;53.720;10.014;2022-12-26T05:12:28;7.70;99.90
38582;DHT22;24349;53.720;10.014;2022-12-26T05:14:53;7.70;99.90
38582;DHT22;24349;53.720;10.014;2022-12-26T05:17:19;7.70;99.90
38582;DHT22;24349;53.720;10.014;2022-12-26T05:20:03;7.70;99.90
38582;DHT22;24349;53.720;10.014;2022-12-26T05:22:48;7.70;99.90
38582;DHT22;24349;53.720;10.014;2022-12-26T05:25:33;7.60;99.90
38582;DHT22;24349;53.720;10.014;2022-12-26T05:28:18;7.70;99.90
38582;DHT22;24349;53.720;10.014;2022-12-26T05:31:02;7.70;99.90
38582;DHT22;24349;53.720;10.014;2022-12-26T05:33:28;7.70;99.90
38582;DHT22;24349;53.720;10.014;2022-12-26T05:36:13;7.80;99.90
38582;DHT22;24349;53.720;10.014;2022-12-26T05:38:39;7.80;99.90
38582;DHT22;24349;53.720;10.014;2022-12-26T05:41:04;7.80;99.90
38582;DHT22;24349;53.720;10.014;2022-12-26T05:43:30;7.80;99.90
38582;DHT22;24349;53.720;10.014;2022-12-26T05:45:55;7.80;99.90
38582;DHT22;24349;53.720;10.014;2022-12-26T05:48:21;7.80;99.90
38582;DHT22;24349;53.720;10.014;2022-12-26T05:50:47;7.80;99.90
38582;DHT22;24349;53.720;10.014;2022-12-26T05:53:12;7.90;99.90
38582;DHT22;24349;53.720;10.014;2022-12-26T05:55:38;7.90;99.90
38582;DHT22;24349;53.720;10.014;2022-12-26T05:58:03;7.90;99.90
38582;DHT22;24349;53.720;10.014;2022-12-26T06:00:29;7.90;99.90
38582;DHT22;24349;53.720;10.014;2022-12-26T06:02:55;7.90;99.90
38582;DHT22;24349;53.720;10.014;2022-12-26T06:05:20;7.80;99.90
38582;DHT22;24349;53.720;10.014;2022-12-26T06:07:46;7.90;99.90
38582;DHT22;24349;53.720;10.014;2022-12-26T06:10:12;7.90;99.90
38582;DHT22;24349;53.720;10.014;2022-12-26T06:12:38;7.90;99.90
38582;DHT22;24349;53.720;10.014;2022-12-26T06:15:04;7.90;99.90
38582;DHT22;24349;53.720;10.014;2022-12-26T06:17:29;7.90;99.90
38582;DHT22;24349;53.720;10.014;2022-12-26T06:19:55;7.90;99.90
38582;DHT22;24349;53.720;10.014;2022-12-26T06:22:20;7.90;99.90
38582;DHT22;24349;53.720;10.014;2022-12-26T06:24:46;7.90;99.90
38582;DHT22;24349;53.720;10.014;2022-12-26T06:27:11;7.90;99.90
38582;DHT22;24349;53.720;10.014;2022-12-26T06:29:37;7.90;99.90
38582;DHT22;24349;53.720;10.014;2022-12-26T06:32:02;7.90;99.90
38582;DHT22;24349;53.720;10.014;2022-12-26T06:34:28;8.00;99.90
38582;DHT22;24349;53.720;10.014;2022-12-26T06:36:54;8.00;99.90
38582;DHT22;24349;53.720;10.014;2022-12-26T06:39:20;8.00;99.90
38582;DHT22;24349;53.720;10.014;2022-12-26T06:41:45;8.00;99.90
38582;DHT22;24349;53.720;10.014;2022-12-26T06:44:12;8.00;99.90
38582;DHT22;24349;53.720;10.014;2022-12-26T06:46:38;8.00;99.90
38582;DHT22;24349;53.720;10.014;2022-12-26T06:49:03;8.00;99.90
38582;DHT22;24349;53.720;10.014;2022-12-26T06:51:30;8.00;99.90
38582;DHT22;24349;53.720;10.014;2022-12-26T06:53:57;8.00;99.90
38582;DHT22;24349;53.720;10.014;2022-12-26T06:56:24;8.00;99.90
38582;DHT22;24349;53.720;10.014;2022-12-26T06:58:57;8.00;99.90
38582;DHT22;24349;53.720;10.014;2022-12-26T07:01:23;8.10;99.90
38582;DHT22;24349;53.720;10.014;2022-12-26T07:03:50;8.10;99.90
38582;DHT22;24349;53.720;10.014;2022-12-26T07:06:32;8.10;99.90
38582;DHT22;24349;53.720;10.014;2022-12-26T07:08:59;8.10;99.90
38582;DHT22;24349;53.720;10.014;2022-12-26T07:11:25;8.10;99.90
38582;DHT22;24349;53.720;10.014;2022-12-26T07:13:52;8.10;99.90
38582;DHT22;24349;53.720;10.014;2022-12-26T07:16:17;8.20;99.90
38582;DHT22;24349;53.720;10.014;2022-12-26T07:18:43;8.20;99.90
38582;DHT22;24349;53.720;10.014;2022-12-26T07:21:10;8.20;99.90
38582;DHT22;24349;53.720;10.014;2022-12-26T07:23:35;8.20;99.90
38582;DHT22;24349;53.720;10.014;2022-12-26T07:26:01;8.20;99.90
38582;DHT22;24349;53.720;10.014;2022-12-26T07:28:27;8.20;99.90
38582;DHT22;24349;53.720;10.014;2022-12-26T07:30:52;8.20;99.90
38582;DHT22;24349;53.720;10.014;2022-12-26T07:33:18;8.20;99.90
38582;DHT22;24349;53.720;10.014;2022-12-26T07:35:44;8.20;99.90
38582;DHT22;24349;53.720;10.014;2022-12-26T07:38:10;8.20;99.90
38582;DHT22;24349;53.720;10.014;2022-12-26T07:40:36;8.30;99.90
38582;DHT22;24349;53.720;10.014;2022-12-26T07:43:01;8.30;99.90
38582;DHT22;24349;53.720;10.014;2022-12-26T07:45:27;8.20;99.90
38582;DHT22;24349;53.720;10.014;2022-12-26T07:47:55;8.30;99.90
38582;DHT22;24349;53.720;10.014;2022-12-26T07:50:21;8.30;99.90
38582;DHT22;24349;53.720;10.014;2022-12-26T07:52:47;8.30;99.90
38582;DHT22;24349;53.720;10.014;2022-12-26T07:55:12;8.30;99.90
38582;DHT22;24349;53.720;10.014;2022-12-26T07:57:38;8.30;99.90
38582;DHT22;24349;53.720;10.014;2022-12-26T08:00:04;8.30;99.90
38582;DHT22;24349;53.720;10.014;2022-12-26T08:02:30;8.30;99.90
38582;DHT22;24349;53.720;10.014;2022-12-26T08:04:55;8.30;99.90
38582;DHT22;24349;53.720;10.014;2022-12-26T08:07:21;8.40;99.90
38582;DHT22;24349;53.720;10.014;2022-12-26T08:09:46;8.40;99.90
38582;DHT22;24349;53.720;10.014;2022-12-26T08:12:12;8.40;99.90
38582;DHT22;24349;53.720;10.014;2022-12-26T08:14:38;8.40;99.90
38582;DHT22;24349;53.720;10.014;2022-12-26T08:17:03;8.50;99.90
38582;DHT22;24349;53.720;10.014;2022-12-26T08:19:29;8.50;99.90
38582;DHT22;24349;53.720;10.014;2022-12-26T08:21:54;8.50;99.90
38582;DHT22;24349;53.720;10.014;2022-12-26T08:24:20;8.50;99.90
38582;DHT22;24349;53.720;10.014;2022-12-26T08:26:45;8.50;99.90
38582;DHT22;24349;53.720;10.014;2022-12-26T08:29:11;8.50;99.90
38582;DHT22;24349;53.720;10.014;2022-12-26T08:31:36;8.50;99.90
38582;DHT22;24349;53.720;10.014;2022-12-26T08:34:02;8.50;99.90
38582;DHT22;24349;53.720;10.014;2022-12-26T08:36:27;8.60;99.90
38582;DHT22;24349;53.720;10.014;2022-12-26T08:38:53;8.60;99.90
38582;DHT22;24349;53.720;10.014;2022-12-26T08:41:18;8.60;99.90
38582;DHT22;24349;53.720;10.014;2022-12-26T08:43:48;8.60;99.90
38582;DHT22;24349;53.720;10.014;2022-12-26T08:46:14;8.60;99.90
38582;DHT22;24349;53.720;10.014;2022-12-26T08:48:39;8.60;99.90
38582;DHT22;24349;53.720;10.014;2022-12-26T08:51:06;8.60;99.90
38582;DHT22;24349;53.720;10.014;2022-12-26T08:53:33;8.60;99.90
38582;DHT22;24349;53.720;10.014;2022-12-26T08:56:02;8.70;99.90
38582;DHT22;24349;53.720;10.014;2022-12-26T08:58:28;8.80;99.90
38582;DHT22;24349;53.720;10.014;2022-12-26T09:00:53;8.70;99.90
38582;DHT22;24349;53.720;10.014;2022-12-26T09:03:19;8.70;99.90
38582;DHT22;24349;53.720;10.014;2022-12-26T09:05:45;8.70;99.90
38582;DHT22;24349;53.720;10.014;2022-12-26T09:08:10;8.80;99.90
38582;DHT22;24349;53.720;10.014;2022-12-26T09:10:36;8.80;99.90
38582;DHT22;24349;53.720;10.014;2022-12-26T09:13:01;8.80;99.90
38582;DHT22;24349;53.720;10.014;2022-12-26T09:15:27;8.80;99.90
38582;DHT22;24349;53.720;10.014;2022-12-26T09:17:52;8.80;99.90
38582;DHT22;24349;53.720;10.014;2022-12-26T09:20:18;8.90;99.90
38582;DHT22;24349;53.720;10.014;2022-12-26T09:22:43;8.80;99.90
38582;DHT22;24349;53.720;10.014;2022-12-26T09:25:15;8.80;99.90
38582;DHT22;24349;53.720;10.014;2022-12-26T09:27:40;8.80;99.90
38582;DHT22;24349;53.720;10.014;2022-12-26T09:30:06;8.80;99.90
38582;DHT22;24349;53.720;10.014;2022-12-26T09:32:32;8.90;99.90
38582;DHT22;24349;53.720;10.014;2022-12-26T09:34:58;8.80;99.90
38582;DHT22;24349;53.720;10.014;2022-12-26T09:37:24;8.80;99.90
38582;DHT22;24349;53.720;10.014;2022-12-26T09:39:49;8.90;99.90
38582;DHT22;24349;53.720;10.014;2022-12-26T09:42:24;8.90;99.90
38582;DHT22;24349;53.720;10.014;2022-12-26T09:44:58;8.90;99.90
38582;DHT22;24349;53.720;10.014;2022-12-26T09:47:34;8.90;99.90
38582;DHT22;24349;53.720;10.014;2022-12-26T09:57:51;8.90;99.90
38582;DHT22;24349;53.720;10.014;2022-12-26T10:00:19;8.90;99.90
38582;DHT22;24349;53.720;10.014;2022-12-26T10:02:48;8.90;99.90
38582;DHT22;24349;53.720;10.014;2022-12-26T10:05:16;9.00;99.90
38582;DHT22;24349;53.720;10.014;2022-12-26T10:07:43;9.00;99.90
38582;DHT22;24349;53.720;10.014;2022-12-26T10:20:22;9.10;99.90
38582;DHT22;24349;53.720;10.014;2022-12-26T10:25:39;9.10;99.90
38582;DHT22;24349;53.720;10.014;2022-12-26T10:28:50;9.10;99.90
38582;DHT22;24349;53.720;10.014;2022-12-26T10:30:57;9.10;99.90
38582;DHT22;24349;53.720;10.014;2022-12-26T10:34:23;9.10;99.90
38582;DHT22;24349;53.720;10.014;2022-12-26T10:36:22;9.10;99.90
38582;DHT22;24349;53.720;10.014;2022-12-26T10:38:50;9.10;99.90
38582;DHT22;24349;53.720;10.014;2022-12-26T10:41:19;9.10;99.90
38582;DHT22;24349;53.720;10.014;2022-12-26T10:43:47;9.10;99.90
38582;DHT22;24349;53.720;10.014;2022-12-26T10:48:41;9.20;99.90
38582;DHT22;24349;53.720;10.014;2022-12-26T10:51:07;9.30;99.90
38582;DHT22;24349;53.720;10.014;2022-12-26T10:53:33;9.70;99.90
38582;DHT22;24349;53.720;10.014;2022-12-26T10:56:00;9.70;99.90
38582;DHT22;24349;53.720;10.014;2022-12-26T10:58:30;9.80;99.90
38582;DHT22;24349;53.720;10.014;2022-12-26T11:00:58;9.90;99.90
38582;DHT22;24349;53.720;10.014;2022-12-26T11:03:52;9.80;99.90
38582;DHT22;24349;53.720;10.014;2022-12-26T11:06:18;9.70;99.90
38582;DHT22;24349;53.720;10.014;2022-12-26T11:08:47;9.60;99.90
38582;DHT22;24349;53.720;10.014;2022-12-26T11:11:32;9.60;99.90
38582;DHT22;24349;53.720;10.014;2022-12-26T11:16:50;9.50;99.90
38582;DHT22;24349;53.720;10.014;2022-12-26T11:19:26;9.40;99.90
38582;DHT22;24349;53.720;10.014;2022-12-26T11:21:52;9.40;99.90
38582;DHT22;24349;53.720;10.014;2022-12-26T11:24:18;9.40;99.90
38582;DHT22;24349;53.720;10.014;2022-12-26T11:26:44;9.40;99.90
38582;DHT22;24349;53.720;10.014;2022-12-26T11:31:35;9.40;99.90
38582;DHT22;24349;53.720;10.014;2022-12-26T11:34:01;9.50;99.90
38582;DHT22;24349;53.720;10.014;2022-12-26T11:36:31;9.50;99.90
38582;DHT22;24349;53.720;10.014;2022-12-26T11:39:02;9.40;99.90
38582;DHT22;24349;53.720;10.014;2022-12-26T11:41:33;9.40;99.90
38582;DHT22;24349;53.720;10.014;2022-12-26T11:49:00;9.40;99.90
38582;DHT22;24349;53.720;10.014;2022-12-26T11:51:33;9.40;99.90
38582;DHT22;24349;53.720;10.014;2022-12-26T11:56:43;9.40;99.90
38582;DHT22;24349;53.720;10.014;2022-12-26T11:59:15;9.40;99.90
38582;DHT22;24349;53.720;10.014;2022-12-26T12:01:42;9.40;99.90
38582;DHT22;24349;53.720;10.014;2022-12-26T12:04:07;9.40;99.90
38582;DHT22;24349;53.720;10.014;2022-12-26T12:06:42;9.40;99.90
38582;DHT22;24349;53.720;10.014;2022-12-26T12:11:55;9.30;99.90
38582;DHT22;24349;53.720;10.014;2022-12-26T12:14:27;9.20;99.90
38582;DHT22;24349;53.720;10.014;2022-12-26T12:19:24;9.30;99.90
38582;DHT22;24349;53.720;10.014;2022-12-26T12:26:57;9.30;99.90
38582;DHT22;24349;53.720;10.014;2022-12-26T12:32:20;9.30;99.90
38582;DHT22;24349;53.720;10.014;2022-12-26T12:37:18;9.40;99.90
38582;DHT22;24349;53.720;10.014;2022-12-26T12:39:53;9.40;99.90
38582;DHT22;24349;53.720;10.014;2022-12-26T12:45:06;9.40;99.90
38582;DHT22;24349;53.720;10.014;2022-12-26T12:50:35;9.30;99.90
38582;DHT22;24349;53.720;10.014;2022-12-26T12:57:59;9.40;99.90
38582;DHT22;24349;53.720;10.014;2022-12-26T13:00:27;9.40;99.90
38582;DHT22;24349;53.720;10.014;2022-12-26T13:03:01;9.40;99.90
38582;DHT22;24349;53.720;10.014;2022-12-26T13:10:45;9.50;99.90
38582;DHT22;24349;53.720;10.014;2022-12-26T13:13:15;9.50;99.90
38582;DHT22;24349;53.720;10.014;2022-12-26T13:15:43;9.60;99.90
38582;DHT22;24349;53.720;10.014;2022-12-26T13:18:13;9.50;99.90
38582;DHT22;24349;53.720;10.014;2022-12-26T13:20:41;9.50;99.90
38582;DHT22;24349;53.720;10.014;2022-12-26T13:23:19;9.50;99.90
38582;DHT22;24349;53.720;10.014;2022-12-26T13:26:15;9.50;99.90
38582;DHT22;24349;53.720;10.014;2022-12-26T13:28:47;9.40;99.90
38582;DHT22;24349;53.720;10.014;2022-12-26T13:31:14;9.40;99.90
38582;DHT22;24349;53.720;10.014;2022-12-26T13:33:40;9.40;99.90
38582;DHT22;24349;53.720;10.014;2022-12-26T13:36:06;9.40;99.90
38582;DHT22;24349;53.720;10.014;2022-12-26T13:41:16;9.10;99.90
38582;DHT22;24349;53.720;10.014;2022-12-26T13:44:05;8.90;99.90
38582;DHT22;24349;53.720;10.014;2022-12-26T13:46:33;8.80;99.90
38582;DHT22;24349;53.720;10.014;2022-12-26T13:48:59;8.60;99.90
38582;DHT22;24349;53.720;10.014;2022-12-26T13:54:23;8.30;99.90
38582;DHT22;24349;53.720;10.014;2022-12-26T13:56:56;8.30;99.90
38582;DHT22;24349;53.720;10.014;2022-12-26T13:59:27;8.20;99.90
38582;DHT22;24349;53.720;10.014;2022-12-26T14:02:17;8.20;99.90
38582;DHT22;24349;53.720;10.014;2022-12-26T14:10:03;8.10;99.90
38582;DHT22;24349;53.720;10.014;2022-12-26T14:17:57;7.80;99.90
38582;DHT22;24349;53.720;10.014;2022-12-26T14:25:50;7.70;99.90
38582;DHT22;24349;53.720;10.014;2022-12-26T14:38:29;7.40;99.90
38582;DHT22;24349;53.720;10.014;2022-12-26T14:41:04;7.40;99.90
38582;DHT22;24349;53.720;10.014;2022-12-26T14:43:32;7.30;99.90
38582;DHT22;24349;53.720;10.014;2022-12-26T14:45:58;7.30;99.90
38582;DHT22;24349;53.720;10.014;2022-12-26T14:50:54;7.20;99.90
38582;DHT22;24349;53.720;10.014;2022-12-26T15:03:53;6.90;99.90
38582;DHT22;24349;53.720;10.014;2022-12-26T15:29:16;6.40;99.90
38582;DHT22;24349;53.720;10.014;2022-12-26T15:36:48;6.40;99.90
38582;DHT22;24349;53.720;10.014;2022-12-26T15:41:46;6.40;99.90
38582;DHT22;24349;53.720;10.014;2022-12-26T15:44:27;6.40;99.90
38582;DHT22;24349;53.720;10.014;2022-12-26T15:49:35;6.30;99.90
38582;DHT22;24349;53.720;10.014;2022-12-26T15:52:14;6.20;99.90
38582;DHT22;24349;53.720;10.014;2022-12-26T15:57:22;6.10;99.90
38582;DHT22;24349;53.720;10.014;2022-12-26T15:59:59;6.10;99.90
38582;DHT22;24349;53.720;10.014;2022-12-26T16:07:41;6.10;99.90
38582;DHT22;24349;53.720;10.014;2022-12-26T16:13:33;6.20;99.90
38582;DHT22;24349;53.720;10.014;2022-12-26T16:18:14;6.20;99.90
38582;DHT22;24349;53.720;10.014;2022-12-26T16:20:40;6.20;99.90
38582;DHT22;24349;53.720;10.014;2022-12-26T16:23:26;6.10;99.90
38582;DHT22;24349;53.720;10.014;2022-12-26T16:25:53;6.00;99.90
38582;DHT22;24349;53.720;10.014;2022-12-26T16:28:21;6.00;99.90
38582;DHT22;24349;53.720;10.014;2022-12-26T16:30:48;5.90;99.90
38582;DHT22;24349;53.720;10.014;2022-12-26T16:33:13;5.90;99.90
38582;DHT22;24349;53.720;10.014;2022-12-26T16:35:39;5.90;99.90
38582;DHT22;24349;53.720;10.014;2022-12-26T16:38:07;5.80;99.90
38582;DHT22;24349;53.720;10.014;2022-12-26T16:40:42;5.80;99.90
38582;DHT22;24349;53.720;10.014;2022-12-26T16:45:47;5.80;99.90
38582;DHT22;24349;53.720;10.014;2022-12-26T16:48:14;5.70;99.90
38582;DHT22;24349;53.720;10.014;2022-12-26T16:50:45;5.70;99.90
38582;DHT22;24349;53.720;10.014;2022-12-26T16:53:12;5.80;99.90
38582;DHT22;24349;53.720;10.014;2022-12-26T16:55:57;5.70;99.90
38582;DHT22;24349;53.720;10.014;2022-12-26T16:58:27;5.70;99.90
38582;DHT22;24349;53.720;10.014;2022-12-26T17:01:08;5.60;99.90
38582;DHT22;24349;53.720;10.014;2022-12-26T17:03:35;5.60;99.90
38582;DHT22;24349;53.720;10.014;2022-12-26T17:06:06;5.60;99.90
38582;DHT22;24349;53.720;10.014;2022-12-26T17:08:32;5.60;99.90
38582;DHT22;24349;53.720;10.014;2022-12-26T17:10:58;5.50;99.90
38582;DHT22;24349;53.720;10.014;2022-12-26T17:13:24;5.50;99.90
38582;DHT22;24349;53.720;10.014;2022-12-26T17:15:51;5.50;99.90
38582;DHT22;24349;53.720;10.014;2022-12-26T17:18:35;5.50;99.90
38582;DHT22;24349;53.720;10.014;2022-12-26T17:21:24;5.50;99.90
38582;DHT22;24349;53.720;10.014;2022-12-26T17:26:40;5.50;99.90
38582;DHT22;24349;53.720;10.014;2022-12-26T17:29:17;5.50;99.90
38582;DHT22;24349;53.720;10.014;2022-12-26T17:31:51;5.60;99.90
38582;DHT22;24349;53.720;10.014;2022-12-26T17:34:19;5.60;99.90
38582;DHT22;24349;53.720;10.014;2022-12-26T17:36:46;5.60;99.90
38582;DHT22;24349;53.720;10.014;2022-12-26T17:39:12;5.50;99.90
38582;DHT22;24349;53.720;10.014;2022-12-26T17:41:47;5.50;99.90
38582;DHT22;24349;53.720;10.014;2022-12-26T17:46:59;5.40;99.90
38582;DHT22;24349;53.720;10.014;2022-12-26T17:49:26;5.30;99.90
38582;DHT22;24349;53.720;10.014;2022-12-26T17:51:51;5.30;99.90
38582;DHT22;24349;53.720;10.014;2022-12-26T17:54:17;5.30;99.90
38582;DHT22;24349;53.720;10.014;2022-12-26T17:56:42;5.20;99.90
38582;DHT22;24349;53.720;10.014;2022-12-26T17:59:11;5.20;99.90
38582;DHT22;24349;53.720;10.014;2022-12-26T18:01:38;5.10;99.90
38582;DHT22;24349;53.720;10.014;2022-12-26T18:04:03;5.20;99.90
38582;DHT22;24349;53.720;10.014;2022-12-26T18:06:29;5.10;99.90
38582;DHT22;24349;53.720;10.014;2022-12-26T18:08:54;5.20;99.90
38582;DHT22;24349;53.720;10.014;2022-12-26T18:11:20;5.10;99.90
38582;DHT22;24349;53.720;10.014;2022-12-26T18:13:45;5.10;99.90
38582;DHT22;24349;53.720;10.014;2022-12-26T18:16:14;5.10;99.90
38582;DHT22;24349;53.720;10.014;2022-12-26T18:18:41;5.10;99.90
38582;DHT22;24349;53.720;10.014;2022-12-26T18:21:08;5.10;99.90
38582;DHT22;24349;53.720;10.014;2022-12-26T18:23:35;5.10;99.90
38582;DHT22;24349;53.720;10.014;2022-12-26T18:26:01;5.00;99.90
38582;DHT22;24349;53.720;10.014;2022-12-26T18:28:27;5.00;99.90
38582;DHT22;24349;53.720;10.014;2022-12-26T18:30:53;4.90;99.90
38582;DHT22;24349;53.720;10.014;2022-12-26T18:33:21;4.90;99.90
38582;DHT22;24349;53.720;10.014;2022-12-26T18:35:46;4.90;99.90
38582;DHT22;24349;53.720;10.014;2022-12-26T18:38:17;4.90;99.90
38582;DHT22;24349;53.720;10.014;2022-12-26T18:40:43;4.90;99.90
38582;DHT22;24349;53.720;10.014;2022-12-26T18:43:11;4.80;99.90
38582;DHT22;24349;53.720;10.014;2022-12-26T18:45:37;4.80;99.90
38582;DHT22;24349;53.720;10.014;2022-12-26T18:48:03;4.80;99.90
38582;DHT22;24349;53.720;10.014;2022-12-26T18:50:29;4.70;99.90
38582;DHT22;24349;53.720;10.014;2022-12-26T18:52:55;4.70;99.90
38582;DHT22;24349;53.720;10.014;2022-12-26T18:55:21;4.70;99.90
38582;DHT22;24349;53.720;10.014;2022-12-26T18:57:46;4.70;99.90
38582;DHT22;24349;53.720;10.014;2022-12-26T19:00:13;4.70;99.90
38582;DHT22;24349;53.720;10.014;2022-12-26T19:02:39;4.70;99.90
38582;DHT22;24349;53.720;10.014;2022-12-26T19:05:05;4.70;99.90
38582;DHT22;24349;53.720;10.014;2022-12-26T19:07:30;4.70;99.90
38582;DHT22;24349;53.720;10.014;2022-12-26T19:09:56;4.70;99.90
38582;DHT22;24349;53.720;10.014;2022-12-26T19:12:23;4.70;99.90
38582;DHT22;24349;53.720;10.014;2022-12-26T19:14:49;4.70;99.90